CheckWX is a tool to help pilots better visualize weather data.  It is not intended as a substitute for an official pre-flight weather briefing.

07:32:27 UTC

KDEC TAF
Decatur Airport
Decatur, Illinois, USA
KDEC 210520Z 2106/2206 10008KT P6SM OVC060 FM211000 12010G18KT P6SM VCSH SCT035 OVC060 FM211200 14012G22KT 5SM -TSRA SCT015CB OVC035 FM211500 16014G24KT P6SM OVC025 FM211900 23020G30KT P6SM SCT250

Oct-21@
06:00 UTC

Oct-21 @ 06:00 UTC

Oct-21@
10:00 UTC

Oct-21 @ 10:00 UTC

KDEC 210520Z 2106/2206 10008KT P6SM OVC060
Wind
  • 100° at 8 KTS
Cloud Levels
  • Overcast at 6,000' AGL

Oct-21@
10:00 UTC

Oct-21 @ 10:00 UTC

Oct-21@
12:00 UTC

Oct-21 @ 12:00 UTC

FM211000 12010G18KT P6SM VCSH SCT035 OVC060

From

From Standard forecast or significant change

Wind
  • 120° at 10 KTS
  • {Gusting to 18 KTS
Cloud Levels
  • Scattered at 3,500' AGL
  • Overcast at 6,000' AGL

Oct-21@
12:00 UTC

Oct-21 @ 12:00 UTC

Oct-21@
15:00 UTC

Oct-21 @ 15:00 UTC

FM211200 14012G22KT 5SM -TSRA SCT015CB OVC035

From

From Standard forecast or significant change

Wind
  • 140° at 12 KTS
  • {Gusting to 22 KTS
Conditions
Light Thunderstorm, Light Rain
Cloud Levels
  • Scattered at 1,500' AGL
  • Overcast at 3,500' AGL

Oct-21@
15:00 UTC

Oct-21 @ 15:00 UTC

Oct-21@
19:00 UTC

Oct-21 @ 19:00 UTC

FM211500 16014G24KT P6SM OVC025

From

From Standard forecast or significant change

Wind
  • 160° at 14 KTS
  • {Gusting to 24 KTS
Cloud Levels
  • Overcast at 2,500' AGL

Oct-21@
19:00 UTC

Oct-21 @ 19:00 UTC

Oct-22@
06:00 UTC

Oct-22 @ 06:00 UTC

FM211900 23020G30KT P6SM SCT250

From

From Standard forecast or significant change

Wind
  • 230° at 20 KTS
  • {Gusting to 30 KTS
Cloud Levels
  • Scattered at 25,000' AGL